createdAt,value
2023-04-28T00:00:26.448Z,7.50
2023-04-28T00:05:42.289Z,7.50
2023-04-28T00:10:58.478Z,7.60
2023-04-28T00:16:13.896Z,7.60
2023-04-28T00:21:29.702Z,7.40
2023-04-28T00:26:45.601Z,7.40
2023-04-28T00:32:01.570Z,7.40
2023-04-28T00:37:17.850Z,7.40
2023-04-28T00:42:33.799Z,7.20
2023-04-28T00:47:49.838Z,7.00
2023-04-28T00:53:06.409Z,6.90
2023-04-28T00:58:22.601Z,7.00
2023-04-28T01:03:41.288Z,7.10
2023-04-28T01:08:57.189Z,7.00
2023-04-28T01:14:12.650Z,6.80
2023-04-28T01:19:29.952Z,6.60
2023-04-28T01:24:45.600Z,6.50
2023-04-28T01:30:01.493Z,6.50
2023-04-28T01:35:17.642Z,6.50
2023-04-28T01:40:33.451Z,6.30
2023-04-28T01:45:49.413Z,6.20
2023-04-28T01:51:05.842Z,6.20
2023-04-28T01:56:21.613Z,6.20
2023-04-28T02:01:37.475Z,6.30
2023-04-28T02:06:53.579Z,6.10
2023-04-28T02:12:09.496Z,6.10
2023-04-28T02:17:25.359Z,6.10
2023-04-28T02:22:41.764Z,6.10
2023-04-28T02:27:58.049Z,6.00
2023-04-28T02:33:13.787Z,5.90
2023-04-28T02:38:29.905Z,5.90
2023-04-28T02:43:45.373Z,6.00
2023-04-28T02:49:01.705Z,6.00
2023-04-28T02:54:18.072Z,6.00
2023-04-28T02:59:34.631Z,6.00
2023-04-28T03:04:50.305Z,6.10
2023-04-28T03:10:07.155Z,6.00
2023-04-28T03:15:23.334Z,6.00
2023-04-28T03:20:38.879Z,5.90
2023-04-28T03:25:54.653Z,6.10
2023-04-28T03:31:10.747Z,6.20
2023-04-28T03:36:27.799Z,6.20
2023-04-28T03:41:43.576Z,6.00
2023-04-28T03:46:59.348Z,5.80
2023-04-28T03:52:16.002Z,5.90
2023-04-28T03:57:31.896Z,6.10
2023-04-28T04:02:47.800Z,6.20
2023-04-28T04:08:04.142Z,6.30
2023-04-28T04:13:19.728Z,6.40
2023-04-28T04:18:35.885Z,6.30
2023-04-28T04:23:51.446Z,6.40
2023-04-28T04:29:07.431Z,6.40
2023-04-28T04:34:23.398Z,6.50
2023-04-28T04:39:39.409Z,6.30
2023-04-28T04:44:55.921Z,6.60
2023-04-28T04:50:12.877Z,6.70
2023-04-28T04:55:28.519Z,7.00
2023-04-28T05:00:44.645Z,7.20
2023-04-28T05:06:00.573Z,7.40
2023-04-28T05:11:17.134Z,7.30
2023-04-28T05:16:33.242Z,7.40
2023-04-28T05:21:49.002Z,7.70
2023-04-28T05:27:04.733Z,7.80
2023-04-28T05:32:21.718Z,8.00
2023-04-28T05:37:38.355Z,8.40
2023-04-28T05:42:54.012Z,8.70
2023-04-28T05:48:09.997Z,8.90
2023-04-28T05:53:27.160Z,9.10
2023-04-28T05:58:45.163Z,9.20
2023-04-28T06:04:01.564Z,9.00
2023-04-28T06:09:17.741Z,9.00
2023-04-28T06:14:33.399Z,9.30
2023-04-28T06:19:48.924Z,9.40
2023-04-28T06:25:05.352Z,9.70
2023-04-28T06:30:24.806Z,9.90
2023-04-28T06:35:40.450Z,10.40
2023-04-28T06:40:56.567Z,11.10
2023-04-28T06:46:12.604Z,12.50
2023-04-28T06:51:28.994Z,13.00
2023-04-28T06:56:44.630Z,12.30
2023-04-28T07:02:00.088Z,11.60
2023-04-28T07:07:16.309Z,11.10
2023-04-28T07:12:32.171Z,11.10
2023-04-28T07:17:48.224Z,11.50
2023-04-28T07:23:04.152Z,11.50
2023-04-28T07:28:20.616Z,11.40
2023-04-28T07:33:36.621Z,11.00
2023-04-28T07:38:52.562Z,11.00
2023-04-28T07:44:08.614Z,10.90
2023-04-28T07:49:24.489Z,10.90
2023-04-28T07:54:40.342Z,10.80
2023-04-28T07:59:56.874Z,10.90
2023-04-28T08:05:12.979Z,10.70
2023-04-28T08:10:29.214Z,10.80
2023-04-28T08:15:45.089Z,10.90
2023-04-28T08:21:02.333Z,11.20
2023-04-28T08:26:18.426Z,11.50
2023-04-28T08:31:34.319Z,11.40
2023-04-28T08:36:50.329Z,11.10
2023-04-28T08:42:06.242Z,11.30
2023-04-28T08:47:23.659Z,11.60
2023-04-28T08:52:41.066Z,12.10
2023-04-28T08:57:57.803Z,13.10
2023-04-28T09:03:14.204Z,13.10
2023-04-28T09:08:30.186Z,13.20
2023-04-28T09:13:46.125Z,13.00
2023-04-28T09:19:02.276Z,13.80
2023-04-28T09:24:35.097Z,14.10
2023-04-28T09:29:54.839Z,14.50
2023-04-28T09:35:10.439Z,14.30
2023-04-28T09:40:26.662Z,14.50
2023-04-28T09:45:43.006Z,14.60
2023-04-28T09:51:01.316Z,14.30
2023-04-28T09:56:20.851Z,14.40
2023-04-28T10:01:43.370Z,13.80
2023-04-28T10:06:59.896Z,13.80
2023-04-28T10:12:23.395Z,14.20
2023-04-28T10:17:39.720Z,14.40
2023-04-28T10:23:07.690Z,14.80
2023-04-28T10:28:24.105Z,14.90
2023-04-28T10:33:41.296Z,15.60
2023-04-28T10:39:17.145Z,15.70
2023-04-28T10:44:33.412Z,15.90
2023-04-28T10:50:08.145Z,15.90
2023-04-28T10:55:36.500Z,16.40
2023-04-28T11:00:52.520Z,16.40
2023-04-28T11:06:32.266Z,15.80
2023-04-28T11:12:00.248Z,15.60
2023-04-28T11:17:18.990Z,16.00
2023-04-28T11:22:35.013Z,16.80
2023-04-28T11:27:51.140Z,17.10
2023-04-28T11:33:08.806Z,17.10
2023-04-28T11:38:24.551Z,16.90
2023-04-28T11:43:47.376Z,16.60
2023-04-28T11:49:07.038Z,16.70
2023-04-28T11:54:27.580Z,16.60
2023-04-28T11:59:43.110Z,16.20
2023-04-28T12:05:07.939Z,15.80
2023-04-28T12:10:23.784Z,15.80
2023-04-28T12:15:42.480Z,15.80
2023-04-28T12:20:58.635Z,16.10
2023-04-28T12:26:14.262Z,16.20
2023-04-28T12:31:30.185Z,16.40
2023-04-28T12:36:46.676Z,16.70
2023-04-28T12:42:03.962Z,17.20
2023-04-28T12:47:19.806Z,17.60
2023-04-28T12:52:37.768Z,17.50
2023-04-28T12:57:53.703Z,17.60
2023-04-28T13:03:09.559Z,17.40
2023-04-28T13:08:26.456Z,17.50
2023-04-28T13:13:43.055Z,17.40
2023-04-28T13:18:59.475Z,17.80
2023-04-28T13:24:15.503Z,18.20
2023-04-28T13:29:31.116Z,18.10
2023-04-28T13:34:47.284Z,17.90
2023-04-28T13:40:04.550Z,17.70
2023-04-28T13:45:22.467Z,17.80
2023-04-28T13:50:39.620Z,17.60
2023-04-28T13:55:57.768Z,17.70
2023-04-28T14:01:13.337Z,17.70
2023-04-28T14:06:29.321Z,17.60
2023-04-28T14:11:51.259Z,17.30
2023-04-28T14:17:07.184Z,17.00
2023-04-28T14:22:22.962Z,16.80
2023-04-28T14:27:38.914Z,16.60
2023-04-28T14:32:55.014Z,16.60
2023-04-28T14:38:11.237Z,16.40
2023-04-28T14:43:27.333Z,16.40
2023-04-28T14:48:44.125Z,16.30
2023-04-28T14:53:59.949Z,16.30
2023-04-28T14:59:15.830Z,16.70
2023-04-28T15:04:32.885Z,17.00
2023-04-28T15:09:48.865Z,17.40
2023-04-28T15:15:05.378Z,17.60
2023-04-28T15:20:21.044Z,17.40
2023-04-28T15:25:36.819Z,17.20
2023-04-28T15:30:52.643Z,17.00
2023-04-28T15:36:09.188Z,17.20
2023-04-28T15:41:25.390Z,17.00
2023-04-28T15:46:41.006Z,17.20
2023-04-28T15:51:57.022Z,17.40
2023-04-28T15:57:12.824Z,17.30
2023-04-28T16:02:28.782Z,17.30
2023-04-28T16:07:45.523Z,17.00
2023-04-28T16:13:01.350Z,16.70
2023-04-28T16:18:17.906Z,16.50
2023-04-28T16:23:33.618Z,16.50
2023-04-28T16:28:49.378Z,16.50
2023-04-28T16:34:05.179Z,16.50
2023-04-28T16:39:21.540Z,16.60
2023-04-28T16:44:37.495Z,16.50
2023-04-28T16:49:53.944Z,16.50
2023-04-28T16:55:10.739Z,16.70
2023-04-28T17:00:26.567Z,16.70
2023-04-28T17:05:42.365Z,16.70
2023-04-28T17:10:58.464Z,16.40
2023-04-28T17:16:14.552Z,16.30
2023-04-28T17:21:31.880Z,16.20
2023-04-28T17:26:47.933Z,16.10
2023-04-28T17:32:04.464Z,15.90
2023-04-28T17:37:20.644Z,15.70
2023-04-28T17:42:36.364Z,15.60
2023-04-28T17:47:53.168Z,15.50
2023-04-28T17:53:08.763Z,15.40
2023-04-28T17:58:24.724Z,15.20
2023-04-28T18:03:41.713Z,15.00
2023-04-28T18:08:57.860Z,14.90
2023-04-28T18:14:15.622Z,14.70
2023-04-28T18:19:31.494Z,14.60
2023-04-28T18:24:48.939Z,14.40
2023-04-28T18:30:05.296Z,14.10
2023-04-28T18:35:21.053Z,13.90
2023-04-28T18:40:38.989Z,13.70
2023-04-28T18:45:55.092Z,13.50
2023-04-28T18:51:11.580Z,13.30
2023-04-28T18:56:27.819Z,13.10
2023-04-28T19:01:43.687Z,13.00
2023-04-28T19:06:59.596Z,12.90
2023-04-28T19:12:15.945Z,12.90
2023-04-28T19:17:32.148Z,13.00
2023-04-28T19:22:48.217Z,12.90
2023-04-28T19:28:04.145Z,12.90
2023-04-28T19:33:24.848Z,13.00
2023-04-28T19:38:42.172Z,13.00
2023-04-28T19:43:58.053Z,12.80
2023-04-28T19:49:14.200Z,12.60
2023-04-28T19:54:30.254Z,12.50
2023-04-28T19:59:47.765Z,12.40
2023-04-28T20:05:04.240Z,12.30
2023-04-28T20:10:19.723Z,12.30
2023-04-28T20:15:36.316Z,12.50
2023-04-28T20:20:53.860Z,12.40
2023-04-28T20:26:16.878Z,12.40
2023-04-28T20:31:32.715Z,12.40
2023-04-28T20:36:48.917Z,12.30
2023-04-28T20:42:04.960Z,12.20
2023-04-28T20:47:20.371Z,12.10
2023-04-28T20:52:36.575Z,12.00
2023-04-28T20:57:52.124Z,12.00
2023-04-28T21:03:08.142Z,12.00
2023-04-28T21:08:24.168Z,11.90
2023-04-28T21:13:41.024Z,11.80
2023-04-28T21:18:56.878Z,11.80
2023-04-28T21:24:13.072Z,11.90
2023-04-28T21:29:29.062Z,11.80
2023-04-28T21:34:48.987Z,11.70
2023-04-28T21:40:05.231Z,11.50
2023-04-28T21:45:20.866Z,11.40
2023-04-28T21:50:37.670Z,11.20
2023-04-28T21:55:53.496Z,11.10
2023-04-28T22:01:09.073Z,10.90
2023-04-28T22:06:25.378Z,10.90
2023-04-28T22:11:41.085Z,10.90
2023-04-28T22:16:57.157Z,11.00
2023-04-28T22:22:13.122Z,11.00
2023-04-28T22:27:30.823Z,10.70
2023-04-28T22:32:47.677Z,10.70
2023-04-28T22:38:03.732Z,10.50
2023-04-28T22:43:19.647Z,10.70
2023-04-28T22:48:35.387Z,10.80
2023-04-28T22:53:51.095Z,10.90
2023-04-28T22:59:07.422Z,10.90
2023-04-28T23:04:24.043Z,10.90
2023-04-28T23:09:40.429Z,10.90
2023-04-28T23:14:56.856Z,10.80
2023-04-28T23:20:12.697Z,10.80
2023-04-28T23:25:28.457Z,10.90
2023-04-28T23:30:44.681Z,11.00
2023-04-28T23:36:00.076Z,11.00
2023-04-28T23:41:16.375Z,10.90
2023-04-28T23:46:32.140Z,10.70
2023-04-28T23:51:48.013Z,10.60
2023-04-28T23:57:03.580Z,10.50
